createdAt,value
2023-11-24T00:00:00.597Z,12.6
2023-11-24T00:05:00.603Z,12.4
2023-11-24T00:10:00.725Z,9.3
2023-11-24T00:15:00.596Z,11.2
2023-11-24T00:20:00.596Z,12.9
2023-11-24T00:25:00.809Z,14.7
2023-11-24T00:30:00.591Z,11.6
2023-11-24T00:35:00.608Z,14.1
2023-11-24T00:40:00.797Z,15.0
2023-11-24T00:45:00.591Z,12.1
2023-11-24T00:50:00.584Z,11.8
2023-11-24T00:55:00.775Z,10.1
2023-11-24T01:00:00.578Z,9.0
2023-11-24T01:05:00.580Z,7.1
2023-11-24T01:10:00.990Z,11.2
2023-11-24T01:15:00.605Z,7.3
2023-11-24T01:20:00.649Z,15.7
2023-11-24T01:25:00.663Z,13.4
2023-11-24T01:30:00.594Z,13.3
2023-11-24T01:35:00.545Z,12.8
2023-11-24T01:40:00.671Z,11.8
2023-11-24T01:45:00.619Z,12.2
2023-11-24T01:50:00.589Z,15.5
2023-11-24T01:55:00.707Z,9.6
2023-11-24T02:00:00.559Z,12.1
2023-11-24T02:05:00.586Z,12.0
2023-11-24T02:10:00.804Z,11.4
2023-11-24T02:15:00.611Z,9.7
2023-11-24T02:20:00.589Z,9.9
2023-11-24T02:25:00.698Z,7.7
2023-11-24T02:30:00.634Z,9.4
2023-11-24T02:35:00.629Z,10.5
2023-11-24T02:40:00.848Z,9.9
2023-11-24T02:45:00.593Z,10.1
2023-11-24T02:50:00.593Z,9.0
2023-11-24T02:55:00.792Z,10.5
2023-11-24T03:00:00.652Z,10.5
2023-11-24T03:05:00.792Z,10.3
2023-11-24T03:10:00.669Z,8.5
2023-11-24T03:15:00.621Z,7.1
2023-11-24T03:20:00.613Z,8.0
2023-11-24T03:25:00.786Z,10.7
2023-11-24T03:30:00.683Z,7.4
2023-11-24T03:35:00.632Z,3.7
2023-11-24T03:40:00.855Z,6.9
2023-11-24T03:45:00.618Z,4.1
2023-11-24T03:50:00.583Z,9.3
2023-11-24T03:55:00.688Z,9.5
2023-11-24T04:00:00.611Z,12.8
2023-11-24T04:05:00.608Z,13.3
2023-11-24T04:10:00.737Z,10.8
2023-11-24T04:15:00.606Z,14.0
2023-11-24T04:20:00.574Z,13.3
2023-11-24T04:25:00.709Z,13.8
2023-11-24T04:30:00.620Z,10.5
2023-11-24T04:35:00.693Z,12.0
2023-11-24T04:40:00.745Z,9.7
2023-11-24T04:45:00.626Z,6.8
2023-11-24T04:50:00.692Z,8.3
2023-11-24T04:55:00.722Z,10.6
2023-11-24T05:00:00.578Z,8.6
2023-11-24T05:05:00.596Z,10.0
2023-11-24T05:10:00.690Z,10.8
2023-11-24T05:15:00.613Z,9.8
2023-11-24T05:20:00.605Z,10.4
2023-11-24T05:25:00.654Z,12.9
2023-11-24T05:30:00.584Z,13.5
2023-11-24T05:35:00.608Z,12.6
2023-11-24T05:40:00.637Z,8.5
2023-11-24T05:45:00.601Z,11.1
2023-11-24T05:50:00.592Z,8.4
2023-11-24T05:55:00.690Z,8.7
2023-11-24T06:00:00.651Z,11.7
2023-11-24T06:05:00.959Z,14.0
2023-11-24T06:10:00.633Z,9.5
2023-11-24T06:15:00.618Z,9.7
2023-11-24T06:20:00.563Z,10.2
2023-11-24T06:25:00.714Z,10.8
2023-11-24T06:30:00.605Z,10.0
2023-11-24T06:35:00.590Z,9.8
2023-11-24T06:40:00.701Z,9.5
2023-11-24T06:45:00.640Z,9.6
2023-11-24T06:50:00.567Z,8.4
2023-11-24T06:55:00.697Z,7.7
2023-11-24T07:00:00.631Z,9.4
2023-11-24T07:05:00.591Z,9.3
2023-11-24T07:10:00.984Z,11.2
2023-11-24T07:15:00.598Z,12.0
2023-11-24T07:20:00.674Z,10.8
2023-11-24T07:25:00.763Z,10.8
2023-11-24T07:30:00.587Z,9.2
2023-11-24T07:35:02.200Z,11.7
2023-11-24T07:40:00.763Z,9.0
2023-11-24T07:45:00.591Z,9.3
2023-11-24T07:50:00.577Z,12.2
2023-11-24T07:55:00.656Z,8.4
2023-11-24T08:00:00.589Z,16.1
2023-11-24T08:05:00.594Z,13.5
2023-11-24T08:10:00.647Z,12.2
2023-11-24T08:15:00.607Z,11.4
2023-11-24T08:20:00.573Z,10.6
2023-11-24T08:25:00.749Z,11.0
2023-11-24T08:30:00.557Z,13.7
2023-11-24T08:35:00.714Z,11.2
2023-11-24T08:40:00.804Z,11.7
2023-11-24T08:45:00.620Z,10.8
2023-11-24T08:50:01.224Z,10.6
2023-11-24T08:55:00.757Z,8.2
2023-11-24T09:00:00.618Z,11.3
2023-11-24T09:05:00.908Z,11.1
2023-11-24T09:10:00.685Z,12.1
2023-11-24T09:15:00.614Z,9.7
2023-11-24T09:20:00.547Z,13.7
2023-11-24T09:25:00.648Z,8.5
2023-11-24T09:30:00.612Z,8.4
2023-11-24T09:35:00.652Z,8.9
2023-11-24T09:40:00.712Z,11.6
2023-11-24T09:45:00.615Z,9.5
2023-11-24T09:50:00.619Z,8.7
2023-11-24T09:55:00.683Z,15.1
2023-11-24T10:00:00.619Z,12.5
2023-11-24T10:05:00.598Z,8.9
2023-11-24T10:10:00.672Z,8.4
2023-11-24T10:15:00.617Z,11.5
2023-11-24T10:20:00.587Z,11.2
2023-11-24T10:25:00.782Z,12.1
2023-11-24T10:30:00.623Z,10.2
2023-11-24T10:35:00.808Z,10.2
2023-11-24T10:40:00.722Z,10.0
2023-11-24T10:45:00.633Z,11.7
2023-11-24T10:50:00.594Z,10.4
2023-11-24T10:55:00.695Z,10.6
2023-11-24T11:00:00.622Z,10.4
2023-11-24T11:05:00.572Z,12.0
2023-11-24T11:10:00.780Z,16.1
2023-11-24T11:15:00.922Z,14.2
2023-11-24T11:20:00.771Z,8.1
2023-11-24T11:25:00.645Z,12.9
2023-11-24T11:30:00.563Z,12.9
2023-11-24T11:35:00.612Z,10.9
2023-11-24T11:40:00.823Z,11.7
2023-11-24T11:45:00.608Z,10.3
2023-11-24T11:50:00.573Z,17.9
2023-11-24T11:55:00.663Z,11.4
2023-11-24T12:00:00.598Z,8.8
2023-11-24T12:05:00.591Z,10.6
2023-11-24T12:10:00.676Z,13.1
2023-11-24T12:15:00.607Z,16.2
2023-11-24T12:20:00.594Z,12.7
2023-11-24T12:25:00.652Z,9.8
2023-11-24T12:30:00.597Z,10.3
2023-11-24T12:35:00.589Z,11.0
2023-11-24T12:40:00.714Z,11.7
2023-11-24T12:45:00.717Z,14.9
2023-11-24T12:50:00.607Z,9.6
2023-11-24T12:55:00.640Z,13.0
2023-11-24T13:00:00.574Z,14.0
2023-11-24T13:05:00.897Z,10.4
2023-11-24T13:10:00.712Z,13.4
2023-11-24T13:15:00.661Z,13.9
2023-11-24T13:20:00.586Z,17.1
2023-11-24T13:25:00.723Z,17.8
2023-11-24T13:30:00.794Z,12.2
2023-11-24T13:35:00.682Z,10.2
2023-11-24T13:40:00.664Z,12.1
2023-11-24T13:45:00.590Z,12.8
2023-11-24T13:50:00.628Z,15.9
2023-11-24T13:55:00.673Z,11.9
2023-11-24T14:00:00.648Z,7.8
2023-11-24T14:05:00.614Z,10.8
2023-11-24T14:10:00.631Z,11.4
2023-11-24T14:15:00.681Z,12.3
2023-11-24T14:20:00.596Z,13.0
2023-11-24T14:25:00.655Z,11.1
2023-11-24T14:30:00.562Z,16.7
2023-11-24T14:35:00.614Z,10.5
2023-11-24T14:40:00.629Z,12.6
2023-11-24T14:45:00.605Z,10.9
2023-11-24T14:50:00.650Z,10.9
2023-11-24T14:55:00.711Z,11.9
2023-11-24T15:00:00.578Z,12.6
2023-11-24T15:05:00.781Z,13.7
2023-11-24T15:10:00.838Z,12.6
2023-11-24T15:15:00.640Z,13.3
2023-11-24T15:20:00.660Z,13.0
2023-11-24T15:25:01.314Z,16.5
2023-11-24T15:30:00.602Z,15.3
2023-11-24T15:35:00.627Z,14.7
2023-11-24T15:40:00.732Z,12.6
2023-11-24T15:45:00.621Z,15.4
2023-11-24T15:50:00.616Z,18.6
2023-11-24T15:55:00.744Z,11.4
2023-11-24T16:00:00.656Z,9.4
2023-11-24T16:05:00.601Z,12.0
2023-11-24T16:10:00.676Z,10.9
2023-11-24T16:15:00.681Z,13.0
2023-11-24T16:20:00.577Z,14.9
2023-11-24T16:25:00.682Z,8.9
2023-11-24T16:30:00.559Z,11.0
2023-11-24T16:35:00.612Z,12.3
2023-11-24T16:40:01.688Z,14.8
2023-11-24T16:45:00.611Z,14.8
2023-11-24T16:50:00.552Z,10.5
2023-11-24T16:55:00.703Z,11.6
2023-11-24T17:00:00.622Z,12.7
2023-11-24T17:05:02.646Z,12.3
2023-11-24T17:10:00.716Z,11.8
2023-11-24T17:15:00.606Z,9.3
2023-11-24T17:20:00.656Z,14.8
2023-11-24T17:25:00.690Z,15.4
2023-11-24T17:30:00.597Z,14.0
2023-11-24T17:35:00.615Z,13.4
2023-11-24T17:40:00.667Z,14.2
2023-11-24T17:45:00.631Z,12.1
2023-11-24T17:50:00.652Z,15.0
2023-11-24T17:55:00.646Z,14.3
2023-11-24T18:00:00.606Z,10.5
2023-11-24T18:05:00.560Z,11.6
2023-11-24T18:10:00.610Z,12.8
2023-11-24T18:15:00.601Z,6.7
2023-11-24T18:20:00.623Z,10.6
2023-11-24T18:25:00.746Z,10.8
2023-11-24T18:30:00.573Z,10.6
2023-11-24T18:35:00.610Z,10.6
2023-11-24T18:40:04.538Z,6.8
2023-11-24T18:45:00.576Z,10.6
2023-11-24T18:50:00.560Z,6.6
2023-11-24T18:55:02.776Z,9.5
2023-11-24T19:00:00.645Z,12.0
2023-11-24T19:05:00.764Z,12.6
2023-11-24T19:10:00.690Z,8.6
2023-11-24T19:15:00.676Z,9.8
2023-11-24T19:20:00.669Z,11.5
2023-11-24T19:25:00.770Z,8.8
2023-11-24T19:30:00.567Z,8.1
2023-11-24T19:35:00.634Z,6.0
2023-11-24T19:40:00.767Z,8.8
2023-11-24T19:45:00.629Z,8.2
2023-11-24T19:50:00.661Z,6.2
2023-11-24T19:55:00.731Z,10.6
2023-11-24T20:00:00.663Z,8.0
2023-11-24T20:05:00.639Z,3.9
2023-11-24T20:10:00.675Z,1.0
2023-11-24T20:15:00.607Z,0.5
2023-11-24T20:20:00.595Z,1.5
2023-11-24T20:25:00.699Z,0.8
2023-11-24T20:30:00.626Z,0.1
2023-11-24T20:35:00.868Z,0.0
2023-11-24T20:40:00.812Z,0.0
2023-11-24T20:45:00.611Z,0.8
2023-11-24T20:50:00.581Z,1.4
2023-11-24T20:55:00.658Z,2.9
2023-11-24T21:00:00.566Z,2.0
2023-11-24T21:05:00.662Z,1.8
2023-11-24T21:10:00.736Z,1.8
2023-11-24T21:15:00.669Z,1.3
2023-11-24T21:20:00.615Z,0.8
2023-11-24T21:25:00.702Z,2.0
2023-11-24T21:30:00.584Z,1.9
2023-11-24T21:35:00.612Z,1.1
2023-11-24T21:40:00.634Z,1.6
2023-11-24T21:45:00.614Z,2.3
2023-11-24T21:50:00.702Z,3.4
2023-11-24T21:55:00.759Z,3.2
2023-11-24T22:00:00.558Z,3.5
2023-11-24T22:05:00.745Z,3.3
2023-11-24T22:10:00.718Z,3.7
2023-11-24T22:15:00.616Z,5.2
2023-11-24T22:20:00.559Z,4.4
2023-11-24T22:25:00.937Z,4.2
2023-11-24T22:30:05.543Z,4.5
2023-11-24T22:35:01.209Z,5.2
2023-11-24T22:40:01.104Z,3.6
2023-11-24T22:45:00.723Z,4.0
2023-11-24T22:50:00.773Z,4.1
2023-11-24T22:55:00.796Z,4.5
2023-11-24T23:00:00.816Z,5.4
2023-11-24T23:05:00.604Z,5.1
2023-11-24T23:10:00.865Z,4.9
2023-11-24T23:15:00.613Z,5.2
2023-11-24T23:20:00.618Z,4.3
2023-11-24T23:25:00.726Z,4.9
2023-11-24T23:30:00.597Z,4.5
2023-11-24T23:35:00.631Z,5.0
2023-11-24T23:40:00.680Z,5.0
2023-11-24T23:45:00.591Z,3.9
2023-11-24T23:50:00.581Z,6.2
2023-11-24T23:55:00.763Z,6.9
